Terminal Aerodrome Forecast
Issued by NWS Louisville, KY

Home | Current Version | Previous Version | Text Only | Print | Product List | Glossary On
Versions: 1 2 3 4 5 6 7 8 9 10 11 12
000
FTUS43 KLMK 272332
TAFBWG
TAF
KBWG 272332Z 2800/2824 20006KT P6SM VCTS SCT035CB BKN090
     FM280700 21004KT 6SM -SHRA VCTS SCT025CB OVC035
     FM281100 22005KT 4SM -SHRA VCTS BKN008CB
     FM281600 26006KT 4SM -SHRA VCTS BKN015CB
     FM282100 35008KT P6SM BKN025=

USA.gov is the U.S. government's official web portal to all federal, state and local government web resources and services.